sensor_id;sensor_type;location;lat;lon;timestamp;temperature;humidity
36594;DHT22;22603;47.900;8.146;2022-10-16T00:51:16;10.80;99.90
36594;DHT22;22603;47.900;8.146;2022-10-16T01:12:33;10.70;99.90
36594;DHT22;22603;47.900;8.146;2022-10-16T01:20:01;10.60;99.90
36594;DHT22;22603;47.900;8.146;2022-10-16T01:37:11;10.70;99.90
36594;DHT22;22603;47.900;8.146;2022-10-16T02:06:56;10.60;99.90
36594;DHT22;22603;47.900;8.146;2022-10-16T02:14:24;10.50;99.90
36594;DHT22;22603;47.900;8.146;2022-10-16T02:30:34;10.60;99.90
36594;DHT22;22603;47.900;8.146;2022-10-16T03:11:04;10.30;99.90
36594;DHT22;22603;47.900;8.146;2022-10-16T03:23:30;10.40;99.90
36594;DHT22;22603;47.900;8.146;2022-10-16T03:30:48;10.30;99.90
36594;DHT22;22603;47.900;8.146;2022-10-16T03:38:14;10.20;99.90
36594;DHT22;22603;47.900;8.146;2022-10-16T04:15:54;10.60;99.90
36594;DHT22;22603;47.900;8.146;2022-10-16T04:18:41;10.50;99.90
36594;DHT22;22603;47.900;8.146;2022-10-16T04:21:27;10.50;99.90
36594;DHT22;22603;47.900;8.146;2022-10-16T04:24:15;10.50;99.90
36594;DHT22;22603;47.900;8.146;2022-10-16T04:27:02;10.50;99.90
36594;DHT22;22603;47.900;8.146;2022-10-16T04:29:48;10.50;99.90
36594;DHT22;22603;47.900;8.146;2022-10-16T04:32:37;10.50;99.90
36594;DHT22;22603;47.900;8.146;2022-10-16T04:35:23;10.50;99.90
36594;DHT22;22603;47.900;8.146;2022-10-16T04:38:11;10.50;99.90
36594;DHT22;22603;47.900;8.146;2022-10-16T04:40:57;10.50;99.90
36594;DHT22;22603;47.900;8.146;2022-10-16T04:43:45;10.50;99.90
36594;DHT22;22603;47.900;8.146;2022-10-16T04:46:32;10.60;99.90
36594;DHT22;22603;47.900;8.146;2022-10-16T04:49:20;10.50;99.90
36594;DHT22;22603;47.900;8.146;2022-10-16T04:52:07;10.50;99.90
36594;DHT22;22603;47.900;8.146;2022-10-16T04:54:55;10.50;99.90
36594;DHT22;22603;47.900;8.146;2022-10-16T04:57:46;10.50;99.90
36594;DHT22;22603;47.900;8.146;2022-10-16T05:00:33;10.50;99.90
36594;DHT22;22603;47.900;8.146;2022-10-16T05:03:19;10.40;99.90
36594;DHT22;22603;47.900;8.146;2022-10-16T05:06:08;10.50;99.90
36594;DHT22;22603;47.900;8.146;2022-10-16T05:08:54;10.50;99.90
36594;DHT22;22603;47.900;8.146;2022-10-16T05:11:41;10.50;99.90
36594;DHT22;22603;47.900;8.146;2022-10-16T05:14:28;10.50;99.90
36594;DHT22;22603;47.900;8.146;2022-10-16T05:17:15;10.50;99.90
36594;DHT22;22603;47.900;8.146;2022-10-16T05:20:01;10.50;99.90
36594;DHT22;22603;47.900;8.146;2022-10-16T05:22:50;10.50;99.90
36594;DHT22;22603;47.900;8.146;2022-10-16T05:25:37;10.50;99.90
36594;DHT22;22603;47.900;8.146;2022-10-16T05:28:24;10.50;99.90
36594;DHT22;22603;47.900;8.146;2022-10-16T05:31:11;10.50;99.90
36594;DHT22;22603;47.900;8.146;2022-10-16T05:33:59;10.50;99.90
36594;DHT22;22603;47.900;8.146;2022-10-16T05:37:00;10.50;99.90
36594;DHT22;22603;47.900;8.146;2022-10-16T05:39:48;10.50;99.90
36594;DHT22;22603;47.900;8.146;2022-10-16T05:42:35;10.50;99.90
36594;DHT22;22603;47.900;8.146;2022-10-16T05:45:22;10.50;99.90
36594;DHT22;22603;47.900;8.146;2022-10-16T05:48:09;10.50;99.90
36594;DHT22;22603;47.900;8.146;2022-10-16T05:50:57;10.40;99.90
36594;DHT22;22603;47.900;8.146;2022-10-16T05:53:45;10.40;99.90
36594;DHT22;22603;47.900;8.146;2022-10-16T05:56:33;10.50;99.90
36594;DHT22;22603;47.900;8.146;2022-10-16T05:59:20;10.40;99.90
36594;DHT22;22603;47.900;8.146;2022-10-16T06:02:10;10.40;99.90
36594;DHT22;22603;47.900;8.146;2022-10-16T06:04:58;10.40;99.90
36594;DHT22;22603;47.900;8.146;2022-10-16T06:07:45;10.40;99.90
36594;DHT22;22603;47.900;8.146;2022-10-16T06:10:32;10.40;99.90
36594;DHT22;22603;47.900;8.146;2022-10-16T06:13:20;10.40;99.90
36594;DHT22;22603;47.900;8.146;2022-10-16T06:16:08;10.40;99.90
36594;DHT22;22603;47.900;8.146;2022-10-16T06:18:56;10.40;99.90
36594;DHT22;22603;47.900;8.146;2022-10-16T06:21:45;10.50;99.90
36594;DHT22;22603;47.900;8.146;2022-10-16T06:24:32;10.50;99.90
36594;DHT22;22603;47.900;8.146;2022-10-16T06:27:19;10.50;99.90
36594;DHT22;22603;47.900;8.146;2022-10-16T06:30:08;10.50;99.90
36594;DHT22;22603;47.900;8.146;2022-10-16T06:32:55;10.50;99.90
36594;DHT22;22603;47.900;8.146;2022-10-16T06:35:42;10.60;99.90
36594;DHT22;22603;47.900;8.146;2022-10-16T06:38:30;10.70;99.90
36594;DHT22;22603;47.900;8.146;2022-10-16T06:41:18;10.70;99.90
36594;DHT22;22603;47.900;8.146;2022-10-16T06:44:06;10.80;99.90
36594;DHT22;22603;47.900;8.146;2022-10-16T06:46:55;10.90;99.90
36594;DHT22;22603;47.900;8.146;2022-10-16T06:49:41;10.90;99.90
36594;DHT22;22603;47.900;8.146;2022-10-16T06:52:28;11.10;99.90
36594;DHT22;22603;47.900;8.146;2022-10-16T06:55:16;11.10;99.90
36594;DHT22;22603;47.900;8.146;2022-10-16T06:58:03;11.10;99.90
36594;DHT22;22603;47.900;8.146;2022-10-16T07:00:55;11.10;99.90
36594;DHT22;22603;47.900;8.146;2022-10-16T07:03:46;11.10;99.90
36594;DHT22;22603;47.900;8.146;2022-10-16T07:06:34;11.20;99.90
36594;DHT22;22603;47.900;8.146;2022-10-16T07:09:21;11.20;99.90
36594;DHT22;22603;47.900;8.146;2022-10-16T07:12:09;11.20;99.90
36594;DHT22;22603;47.900;8.146;2022-10-16T07:14:56;11.20;99.90
36594;DHT22;22603;47.900;8.146;2022-10-16T07:17:43;11.30;99.90
36594;DHT22;22603;47.900;8.146;2022-10-16T07:20:31;11.40;99.90
36594;DHT22;22603;47.900;8.146;2022-10-16T07:23:21;11.40;99.90
36594;DHT22;22603;47.900;8.146;2022-10-16T07:26:08;11.50;99.90
36594;DHT22;22603;47.900;8.146;2022-10-16T07:28:55;11.50;99.90
36594;DHT22;22603;47.900;8.146;2022-10-16T07:31:43;11.50;99.90
36594;DHT22;22603;47.900;8.146;2022-10-16T07:34:30;11.50;99.90
36594;DHT22;22603;47.900;8.146;2022-10-16T07:37:19;11.50;99.90
36594;DHT22;22603;47.900;8.146;2022-10-16T07:40:07;11.60;99.90
36594;DHT22;22603;47.900;8.146;2022-10-16T07:42:54;11.70;99.90
36594;DHT22;22603;47.900;8.146;2022-10-16T07:45:48;11.70;99.90
36594;DHT22;22603;47.900;8.146;2022-10-16T07:48:40;11.80;99.90
36594;DHT22;22603;47.900;8.146;2022-10-16T07:51:31;11.80;99.90
36594;DHT22;22603;47.900;8.146;2022-10-16T07:54:19;11.60;99.90
36594;DHT22;22603;47.900;8.146;2022-10-16T07:57:05;11.80;99.90
36594;DHT22;22603;47.900;8.146;2022-10-16T07:59:53;11.90;99.90
36594;DHT22;22603;47.900;8.146;2022-10-16T08:02:39;12.00;99.90
36594;DHT22;22603;47.900;8.146;2022-10-16T08:05:27;12.10;99.90
36594;DHT22;22603;47.900;8.146;2022-10-16T08:08:15;12.10;99.90
36594;DHT22;22603;47.900;8.146;2022-10-16T08:11:03;12.20;99.90
36594;DHT22;22603;47.900;8.146;2022-10-16T08:13:50;12.40;99.90
36594;DHT22;22603;47.900;8.146;2022-10-16T08:16:37;12.50;99.90
36594;DHT22;22603;47.900;8.146;2022-10-16T08:19:25;12.60;99.90
36594;DHT22;22603;47.900;8.146;2022-10-16T08:22:12;12.50;99.90
36594;DHT22;22603;47.900;8.146;2022-10-16T08:25:05;12.50;99.90
36594;DHT22;22603;47.900;8.146;2022-10-16T08:27:54;12.40;99.90
36594;DHT22;22603;47.900;8.146;2022-10-16T08:30:41;12.50;99.90
36594;DHT22;22603;47.900;8.146;2022-10-16T08:33:28;12.70;99.90
36594;DHT22;22603;47.900;8.146;2022-10-16T08:36:18;12.90;99.90
36594;DHT22;22603;47.900;8.146;2022-10-16T08:39:06;13.10;99.90
36594;DHT22;22603;47.900;8.146;2022-10-16T08:42:11;13.20;99.90
36594;DHT22;22603;47.900;8.146;2022-10-16T08:45:26;13.10;99.90
36594;DHT22;22603;47.900;8.146;2022-10-16T08:48:20;13.50;99.90
36594;DHT22;22603;47.900;8.146;2022-10-16T08:51:10;14.60;99.90
36594;DHT22;22603;47.900;8.146;2022-10-16T08:54:01;16.30;99.90
36594;DHT22;22603;47.900;8.146;2022-10-16T08:56:49;17.00;99.90
36594;DHT22;22603;47.900;8.146;2022-10-16T08:59:37;18.10;99.90
36594;DHT22;22603;47.900;8.146;2022-10-16T09:02:30;18.60;99.90
36594;DHT22;22603;47.900;8.146;2022-10-16T09:08:39;19.90;99.90
36594;DHT22;22603;47.900;8.146;2022-10-16T09:11:37;19.40;99.90
36594;DHT22;22603;47.900;8.146;2022-10-16T09:15:01;18.90;99.90
36594;DHT22;22603;47.900;8.146;2022-10-16T09:17:56;18.30;99.90
36594;DHT22;22603;47.900;8.146;2022-10-16T09:20:51;18.20;99.90
36594;DHT22;22603;47.900;8.146;2022-10-16T09:23:38;17.60;99.90
36594;DHT22;22603;47.900;8.146;2022-10-16T09:26:25;17.80;99.90
36594;DHT22;22603;47.900;8.146;2022-10-16T09:29:13;17.70;99.90
36594;DHT22;22603;47.900;8.146;2022-10-16T09:32:10;18.50;99.90
36594;DHT22;22603;47.900;8.146;2022-10-16T09:34:59;19.40;99.90
36594;DHT22;22603;47.900;8.146;2022-10-16T09:37:49;21.20;99.90
36594;DHT22;22603;47.900;8.146;2022-10-16T09:40:38;21.30;99.90
36594;DHT22;22603;47.900;8.146;2022-10-16T09:43:28;21.10;99.90
36594;DHT22;22603;47.900;8.146;2022-10-16T09:46:25;20.40;99.90
36594;DHT22;22603;47.900;8.146;2022-10-16T09:49:21;20.40;99.90
36594;DHT22;22603;47.900;8.146;2022-10-16T09:52:14;20.60;99.90
36594;DHT22;22603;47.900;8.146;2022-10-16T09:55:13;20.60;99.90
36594;DHT22;22603;47.900;8.146;2022-10-16T09:58:01;20.70;99.90
36594;DHT22;22603;47.900;8.146;2022-10-16T10:00:53;21.00;99.90
36594;DHT22;22603;47.900;8.146;2022-10-16T10:03:41;21.40;99.90
36594;DHT22;22603;47.900;8.146;2022-10-16T10:06:30;21.60;99.90
36594;DHT22;22603;47.900;8.146;2022-10-16T10:09:22;22.30;99.90
36594;DHT22;22603;47.900;8.146;2022-10-16T10:12:18;22.50;99.90
36594;DHT22;22603;47.900;8.146;2022-10-16T10:15:12;22.80;99.90
36594;DHT22;22603;47.900;8.146;2022-10-16T10:18:16;22.50;99.90
36594;DHT22;22603;47.900;8.146;2022-10-16T10:21:05;22.70;99.90
36594;DHT22;22603;47.900;8.146;2022-10-16T10:23:55;22.70;99.90
36594;DHT22;22603;47.900;8.146;2022-10-16T10:26:50;22.60;99.90
36594;DHT22;22603;47.900;8.146;2022-10-16T10:29:48;22.40;99.90
36594;DHT22;22603;47.900;8.146;2022-10-16T10:32:45;22.40;99.90
36594;DHT22;22603;47.900;8.146;2022-10-16T10:35:41;22.40;99.90
36594;DHT22;22603;47.900;8.146;2022-10-16T10:38:38;22.00;99.90
36594;DHT22;22603;47.900;8.146;2022-10-16T10:41:59;21.90;99.90
36594;DHT22;22603;47.900;8.146;2022-10-16T10:44:59;21.80;99.90
36594;DHT22;22603;47.900;8.146;2022-10-16T10:48:05;22.10;99.90
36594;DHT22;22603;47.900;8.146;2022-10-16T10:51:00;22.40;99.90
36594;DHT22;22603;47.900;8.146;2022-10-16T10:53:55;23.50;99.90
36594;DHT22;22603;47.900;8.146;2022-10-16T10:56:49;23.60;99.90
36594;DHT22;22603;47.900;8.146;2022-10-16T10:59:56;23.60;99.90
36594;DHT22;22603;47.900;8.146;2022-10-16T11:02:55;23.80;99.90
36594;DHT22;22603;47.900;8.146;2022-10-16T11:05:50;24.40;99.90
36594;DHT22;22603;47.900;8.146;2022-10-16T11:08:42;25.00;99.90
36594;DHT22;22603;47.900;8.146;2022-10-16T11:11:34;24.40;99.90
36594;DHT22;22603;47.900;8.146;2022-10-16T11:14:25;23.80;99.90
36594;DHT22;22603;47.900;8.146;2022-10-16T11:17:18;24.80;99.90
36594;DHT22;22603;47.900;8.146;2022-10-16T11:20:13;25.00;99.90
36594;DHT22;22603;47.900;8.146;2022-10-16T11:23:08;25.40;99.90
36594;DHT22;22603;47.900;8.146;2022-10-16T11:26:02;25.10;99.90
36594;DHT22;22603;47.900;8.146;2022-10-16T11:28:54;25.10;99.90
36594;DHT22;22603;47.900;8.146;2022-10-16T11:31:44;25.20;99.90
36594;DHT22;22603;47.900;8.146;2022-10-16T11:34:37;25.40;99.90
36594;DHT22;22603;47.900;8.146;2022-10-16T11:37:28;25.90;99.90
36594;DHT22;22603;47.900;8.146;2022-10-16T11:40:23;25.70;99.90
36594;DHT22;22603;47.900;8.146;2022-10-16T11:43:15;25.20;99.90
36594;DHT22;22603;47.900;8.146;2022-10-16T11:46:08;25.20;99.90
36594;DHT22;22603;47.900;8.146;2022-10-16T11:49:00;25.20;99.90
36594;DHT22;22603;47.900;8.146;2022-10-16T11:51:56;25.10;99.90
36594;DHT22;22603;47.900;8.146;2022-10-16T11:54:49;24.90;99.90
36594;DHT22;22603;47.900;8.146;2022-10-16T11:57:40;24.80;99.90
36594;DHT22;22603;47.900;8.146;2022-10-16T12:00:32;24.70;99.90
36594;DHT22;22603;47.900;8.146;2022-10-16T12:03:26;24.80;99.90
36594;DHT22;22603;47.900;8.146;2022-10-16T12:06:25;25.00;99.90
36594;DHT22;22603;47.900;8.146;2022-10-16T12:09:29;24.80;99.90
36594;DHT22;22603;47.900;8.146;2022-10-16T12:12:24;24.70;99.90
36594;DHT22;22603;47.900;8.146;2022-10-16T12:15:22;24.30;99.90
36594;DHT22;22603;47.900;8.146;2022-10-16T12:18:30;24.20;99.90
36594;DHT22;22603;47.900;8.146;2022-10-16T12:21:17;24.20;99.90
36594;DHT22;22603;47.900;8.146;2022-10-16T12:24:05;23.50;99.90
36594;DHT22;22603;47.900;8.146;2022-10-16T12:26:54;23.00;99.90
36594;DHT22;22603;47.900;8.146;2022-10-16T12:29:42;22.90;99.90
36594;DHT22;22603;47.900;8.146;2022-10-16T12:32:33;22.90;99.90
36594;DHT22;22603;47.900;8.146;2022-10-16T12:35:33;22.90;99.90
36594;DHT22;22603;47.900;8.146;2022-10-16T12:38:24;22.80;99.90
36594;DHT22;22603;47.900;8.146;2022-10-16T12:41:12;22.90;99.90
36594;DHT22;22603;47.900;8.146;2022-10-16T12:44:23;23.00;99.90
36594;DHT22;22603;47.900;8.146;2022-10-16T12:47:22;23.10;99.90
36594;DHT22;22603;47.900;8.146;2022-10-16T12:50:28;23.10;99.90
36594;DHT22;22603;47.900;8.146;2022-10-16T12:53:21;23.00;99.90
36594;DHT22;22603;47.900;8.146;2022-10-16T12:56:17;22.60;99.90
36594;DHT22;22603;47.900;8.146;2022-10-16T12:59:12;22.50;99.90
36594;DHT22;22603;47.900;8.146;2022-10-16T13:02:22;22.30;99.90
36594;DHT22;22603;47.900;8.146;2022-10-16T13:05:24;22.40;99.90
36594;DHT22;22603;47.900;8.146;2022-10-16T13:08:26;22.50;99.90
36594;DHT22;22603;47.900;8.146;2022-10-16T13:11:22;22.40;99.90
36594;DHT22;22603;47.900;8.146;2022-10-16T13:14:31;22.30;99.90
36594;DHT22;22603;47.900;8.146;2022-10-16T13:17:27;22.00;99.90
36594;DHT22;22603;47.900;8.146;2022-10-16T13:20:22;21.60;99.90
36594;DHT22;22603;47.900;8.146;2022-10-16T13:23:16;21.50;99.90
36594;DHT22;22603;47.900;8.146;2022-10-16T13:26:15;21.40;99.90
36594;DHT22;22603;47.900;8.146;2022-10-16T13:29:04;21.30;99.90
36594;DHT22;22603;47.900;8.146;2022-10-16T13:31:51;21.10;99.90
36594;DHT22;22603;47.900;8.146;2022-10-16T13:34:46;21.00;99.90
36594;DHT22;22603;47.900;8.146;2022-10-16T13:37:34;20.70;99.90
36594;DHT22;22603;47.900;8.146;2022-10-16T13:40:22;20.70;99.90
36594;DHT22;22603;47.900;8.146;2022-10-16T13:43:09;20.60;99.90
36594;DHT22;22603;47.900;8.146;2022-10-16T13:45:58;20.70;99.90
36594;DHT22;22603;47.900;8.146;2022-10-16T13:48:56;20.70;99.90
36594;DHT22;22603;47.900;8.146;2022-10-16T13:51:55;20.80;99.90
36594;DHT22;22603;47.900;8.146;2022-10-16T13:54:43;20.90;99.90
36594;DHT22;22603;47.900;8.146;2022-10-16T13:57:30;20.90;99.90
36594;DHT22;22603;47.900;8.146;2022-10-16T14:00:22;20.70;99.90
36594;DHT22;22603;47.900;8.146;2022-10-16T14:03:16;20.70;99.90
36594;DHT22;22603;47.900;8.146;2022-10-16T14:06:04;20.60;99.90
36594;DHT22;22603;47.900;8.146;2022-10-16T14:08:59;20.70;99.90
36594;DHT22;22603;47.900;8.146;2022-10-16T14:11:49;20.50;99.90
36594;DHT22;22603;47.900;8.146;2022-10-16T14:14:42;20.60;99.90
36594;DHT22;22603;47.900;8.146;2022-10-16T14:17:30;20.60;99.90
36594;DHT22;22603;47.900;8.146;2022-10-16T14:20:22;20.50;99.90
36594;DHT22;22603;47.900;8.146;2022-10-16T14:23:21;20.50;99.90
36594;DHT22;22603;47.900;8.146;2022-10-16T14:26:15;20.60;99.90
36594;DHT22;22603;47.900;8.146;2022-10-16T14:29:11;20.50;99.90
36594;DHT22;22603;47.900;8.146;2022-10-16T14:32:00;20.60;99.90
36594;DHT22;22603;47.900;8.146;2022-10-16T14:34:53;20.60;99.90
36594;DHT22;22603;47.900;8.146;2022-10-16T14:37:40;20.40;99.90
36594;DHT22;22603;47.900;8.146;2022-10-16T14:40:30;20.30;99.90
36594;DHT22;22603;47.900;8.146;2022-10-16T14:43:22;20.20;99.90
36594;DHT22;22603;47.900;8.146;2022-10-16T14:46:13;20.20;99.90
36594;DHT22;22603;47.900;8.146;2022-10-16T14:49:11;20.20;99.90
36594;DHT22;22603;47.900;8.146;2022-10-16T14:52:00;20.10;99.90
36594;DHT22;22603;47.900;8.146;2022-10-16T14:54:48;20.10;99.90
36594;DHT22;22603;47.900;8.146;2022-10-16T14:57:37;20.10;99.90
36594;DHT22;22603;47.900;8.146;2022-10-16T15:00:34;20.00;99.90
36594;DHT22;22603;47.900;8.146;2022-10-16T15:03:23;20.00;99.90
36594;DHT22;22603;47.900;8.146;2022-10-16T15:06:11;20.10;99.90
36594;DHT22;22603;47.900;8.146;2022-10-16T15:08:59;20.10;99.90
36594;DHT22;22603;47.900;8.146;2022-10-16T15:11:45;20.10;99.90
36594;DHT22;22603;47.900;8.146;2022-10-16T15:14:33;20.10;99.90
36594;DHT22;22603;47.900;8.146;2022-10-16T15:17:22;20.20;99.90
36594;DHT22;22603;47.900;8.146;2022-10-16T15:20:10;20.00;99.90
36594;DHT22;22603;47.900;8.146;2022-10-16T15:22:57;20.00;99.90
36594;DHT22;22603;47.900;8.146;2022-10-16T15:25:46;19.90;99.90
36594;DHT22;22603;47.900;8.146;2022-10-16T15:28:33;19.70;99.90
36594;DHT22;22603;47.900;8.146;2022-10-16T15:31:21;19.70;99.90
36594;DHT22;22603;47.900;8.146;2022-10-16T15:34:10;19.70;99.90
36594;DHT22;22603;47.900;8.146;2022-10-16T15:36:58;19.80;99.90
36594;DHT22;22603;47.900;8.146;2022-10-16T15:39:50;19.50;99.90
36594;DHT22;22603;47.900;8.146;2022-10-16T15:42:37;19.40;99.90
36594;DHT22;22603;47.900;8.146;2022-10-16T15:45:25;19.10;99.90
36594;DHT22;22603;47.900;8.146;2022-10-16T15:48:13;18.70;99.90
36594;DHT22;22603;47.900;8.146;2022-10-16T15:51:05;18.30;99.90
36594;DHT22;22603;47.900;8.146;2022-10-16T15:53:52;17.90;99.90
36594;DHT22;22603;47.900;8.146;2022-10-16T15:56:40;18.00;99.90
36594;DHT22;22603;47.900;8.146;2022-10-16T15:59:27;18.00;99.90
36594;DHT22;22603;47.900;8.146;2022-10-16T16:02:14;17.80;99.90
36594;DHT22;22603;47.900;8.146;2022-10-16T16:05:01;17.50;99.90
36594;DHT22;22603;47.900;8.146;2022-10-16T16:07:50;17.10;99.90
36594;DHT22;22603;47.900;8.146;2022-10-16T16:10:38;16.90;99.90
36594;DHT22;22603;47.900;8.146;2022-10-16T16:13:24;16.60;99.90
36594;DHT22;22603;47.900;8.146;2022-10-16T16:16:13;16.50;99.90
36594;DHT22;22603;47.900;8.146;2022-10-16T16:19:01;16.20;99.90
36594;DHT22;22603;47.900;8.146;2022-10-16T16:21:52;16.10;99.90
36594;DHT22;22603;47.900;8.146;2022-10-16T16:24:40;15.90;99.90
36594;DHT22;22603;47.900;8.146;2022-10-16T16:27:27;15.80;99.90
36594;DHT22;22603;47.900;8.146;2022-10-16T16:30:18;15.60;99.90
36594;DHT22;22603;47.900;8.146;2022-10-16T16:33:11;15.40;99.90
36594;DHT22;22603;47.900;8.146;2022-10-16T16:36:00;15.30;99.90
36594;DHT22;22603;47.900;8.146;2022-10-16T16:38:47;15.20;99.90
36594;DHT22;22603;47.900;8.146;2022-10-16T16:41:36;15.10;99.90
36594;DHT22;22603;47.900;8.146;2022-10-16T16:44:23;15.00;99.90
36594;DHT22;22603;47.900;8.146;2022-10-16T16:47:20;14.90;99.90
36594;DHT22;22603;47.900;8.146;2022-10-16T16:50:35;14.80;99.90
36594;DHT22;22603;47.900;8.146;2022-10-16T16:53:22;14.70;99.90
36594;DHT22;22603;47.900;8.146;2022-10-16T16:56:09;14.60;99.90
36594;DHT22;22603;47.900;8.146;2022-10-16T16:58:58;14.50;99.90
36594;DHT22;22603;47.900;8.146;2022-10-16T17:01:45;14.40;99.90
36594;DHT22;22603;47.900;8.146;2022-10-16T17:04:39;14.20;99.90
36594;DHT22;22603;47.900;8.146;2022-10-16T17:07:26;14.20;99.90
36594;DHT22;22603;47.900;8.146;2022-10-16T17:10:14;14.10;99.90
36594;DHT22;22603;47.900;8.146;2022-10-16T17:13:01;14.00;99.90
36594;DHT22;22603;47.900;8.146;2022-10-16T17:15:50;13.90;99.90
36594;DHT22;22603;47.900;8.146;2022-10-16T17:18:38;13.70;99.90
36594;DHT22;22603;47.900;8.146;2022-10-16T17:21:25;13.60;99.90
36594;DHT22;22603;47.900;8.146;2022-10-16T17:24:14;13.60;99.90
36594;DHT22;22603;47.900;8.146;2022-10-16T17:27:03;13.50;99.90
36594;DHT22;22603;47.900;8.146;2022-10-16T17:29:50;13.50;99.90
36594;DHT22;22603;47.900;8.146;2022-10-16T17:32:41;13.40;99.90
36594;DHT22;22603;47.900;8.146;2022-10-16T17:35:28;13.30;99.90
36594;DHT22;22603;47.900;8.146;2022-10-16T17:38:15;13.20;99.90
36594;DHT22;22603;47.900;8.146;2022-10-16T17:41:21;13.20;99.90
36594;DHT22;22603;47.900;8.146;2022-10-16T17:44:09;13.10;99.90
36594;DHT22;22603;47.900;8.146;2022-10-16T17:47:05;13.00;99.90
36594;DHT22;22603;47.900;8.146;2022-10-16T17:50:05;13.00;99.90
36594;DHT22;22603;47.900;8.146;2022-10-16T17:52:59;13.00;99.90
36594;DHT22;22603;47.900;8.146;2022-10-16T17:55:46;13.00;99.90
36594;DHT22;22603;47.900;8.146;2022-10-16T17:58:33;12.90;99.90
36594;DHT22;22603;47.900;8.146;2022-10-16T18:01:22;12.90;99.90
36594;DHT22;22603;47.900;8.146;2022-10-16T18:04:12;12.80;99.90
36594;DHT22;22603;47.900;8.146;2022-10-16T18:07:02;12.70;99.90
36594;DHT22;22603;47.900;8.146;2022-10-16T18:09:49;12.60;99.90
36594;DHT22;22603;47.900;8.146;2022-10-16T18:12:57;12.50;99.90
36594;DHT22;22603;47.900;8.146;2022-10-16T18:15:44;12.40;99.90
36594;DHT22;22603;47.900;8.146;2022-10-16T18:18:31;12.40;99.90
36594;DHT22;22603;47.900;8.146;2022-10-16T18:21:19;12.40;99.90
36594;DHT22;22603;47.900;8.146;2022-10-16T18:24:09;12.40;99.90
36594;DHT22;22603;47.900;8.146;2022-10-16T18:26:56;12.30;99.90
36594;DHT22;22603;47.900;8.146;2022-10-16T18:29:44;12.20;99.90
36594;DHT22;22603;47.900;8.146;2022-10-16T18:32:33;12.20;99.90
36594;DHT22;22603;47.900;8.146;2022-10-16T18:35:22;12.10;99.90
36594;DHT22;22603;47.900;8.146;2022-10-16T18:38:09;12.10;99.90
36594;DHT22;22603;47.900;8.146;2022-10-16T18:40:57;12.00;99.90
36594;DHT22;22603;47.900;8.146;2022-10-16T18:43:46;12.00;99.90
36594;DHT22;22603;47.900;8.146;2022-10-16T18:46:35;12.00;99.90
36594;DHT22;22603;47.900;8.146;2022-10-16T18:49:22;11.90;99.90
36594;DHT22;22603;47.900;8.146;2022-10-16T18:52:10;11.80;99.90
36594;DHT22;22603;47.900;8.146;2022-10-16T18:54:58;11.70;99.90
36594;DHT22;22603;47.900;8.146;2022-10-16T18:57:46;11.60;99.90
36594;DHT22;22603;47.900;8.146;2022-10-16T19:00:34;11.50;99.90
36594;DHT22;22603;47.900;8.146;2022-10-16T19:03:21;11.40;99.90
36594;DHT22;22603;47.900;8.146;2022-10-16T19:06:09;11.40;99.90
36594;DHT22;22603;47.900;8.146;2022-10-16T19:08:56;11.30;99.90
36594;DHT22;22603;47.900;8.146;2022-10-16T19:11:44;11.10;99.90
36594;DHT22;22603;47.900;8.146;2022-10-16T19:14:32;11.10;99.90
36594;DHT22;22603;47.900;8.146;2022-10-16T19:17:20;11.10;99.90
36594;DHT22;22603;47.900;8.146;2022-10-16T19:20:08;11.00;99.90
36594;DHT22;22603;47.900;8.146;2022-10-16T19:22:57;11.00;99.90
36594;DHT22;22603;47.900;8.146;2022-10-16T19:25:44;11.00;99.90
36594;DHT22;22603;47.900;8.146;2022-10-16T19:28:32;10.90;99.90
36594;DHT22;22603;47.900;8.146;2022-10-16T19:31:22;10.80;99.90
36594;DHT22;22603;47.900;8.146;2022-10-16T19:34:10;10.80;99.90
36594;DHT22;22603;47.900;8.146;2022-10-16T19:36:57;10.70;99.90
36594;DHT22;22603;47.900;8.146;2022-10-16T19:39:44;10.60;99.90
36594;DHT22;22603;47.900;8.146;2022-10-16T19:42:31;10.60;99.90
36594;DHT22;22603;47.900;8.146;2022-10-16T19:45:18;10.60;99.90
36594;DHT22;22603;47.900;8.146;2022-10-16T19:48:07;10.60;99.90
36594;DHT22;22603;47.900;8.146;2022-10-16T19:50:57;10.50;99.90
36594;DHT22;22603;47.900;8.146;2022-10-16T19:53:45;10.50;99.90
36594;DHT22;22603;47.900;8.146;2022-10-16T19:56:33;10.40;99.90
36594;DHT22;22603;47.900;8.146;2022-10-16T19:59:21;10.40;99.90
36594;DHT22;22603;47.900;8.146;2022-10-16T20:02:09;10.30;99.90
36594;DHT22;22603;47.900;8.146;2022-10-16T20:04:57;10.30;99.90
36594;DHT22;22603;47.900;8.146;2022-10-16T20:07:44;10.30;99.90
36594;DHT22;22603;47.900;8.146;2022-10-16T20:10:31;10.20;99.90
36594;DHT22;22603;47.900;8.146;2022-10-16T20:13:19;10.20;99.90
36594;DHT22;22603;47.900;8.146;2022-10-16T20:16:07;10.10;99.90
36594;DHT22;22603;47.900;8.146;2022-10-16T20:18:54;10.10;99.90
36594;DHT22;22603;47.900;8.146;2022-10-16T20:21:43;10.10;99.90
36594;DHT22;22603;47.900;8.146;2022-10-16T20:24:30;10.00;99.90
36594;DHT22;22603;47.900;8.146;2022-10-16T20:27:17;10.00;99.90
36594;DHT22;22603;47.900;8.146;2022-10-16T20:30:05;10.00;99.90
36594;DHT22;22603;47.900;8.146;2022-10-16T20:32:52;9.90;99.90
36594;DHT22;22603;47.900;8.146;2022-10-16T20:35:42;9.90;99.90
36594;DHT22;22603;47.900;8.146;2022-10-16T20:38:30;9.80;99.90
36594;DHT22;22603;47.900;8.146;2022-10-16T20:41:18;9.80;99.90
36594;DHT22;22603;47.900;8.146;2022-10-16T20:44:05;9.80;99.90
36594;DHT22;22603;47.900;8.146;2022-10-16T20:46:53;9.80;99.90
36594;DHT22;22603;47.900;8.146;2022-10-16T20:49:41;9.70;99.90
36594;DHT22;22603;47.900;8.146;2022-10-16T20:52:31;9.70;99.90
36594;DHT22;22603;47.900;8.146;2022-10-16T20:55:20;9.70;99.90
36594;DHT22;22603;47.900;8.146;2022-10-16T20:58:07;9.70;99.90
36594;DHT22;22603;47.900;8.146;2022-10-16T21:00:54;9.70;99.90
36594;DHT22;22603;47.900;8.146;2022-10-16T21:03:42;9.60;99.90
36594;DHT22;22603;47.900;8.146;2022-10-16T21:06:31;9.70;99.90
36594;DHT22;22603;47.900;8.146;2022-10-16T21:09:18;9.60;99.90
36594;DHT22;22603;47.900;8.146;2022-10-16T21:12:06;9.60;99.90
36594;DHT22;22603;47.900;8.146;2022-10-16T21:14:53;9.50;99.90
36594;DHT22;22603;47.900;8.146;2022-10-16T21:17:59;9.70;99.90
36594;DHT22;22603;47.900;8.146;2022-10-16T21:20:46;9.50;99.90
36594;DHT22;22603;47.900;8.146;2022-10-16T21:23:33;9.50;99.90
36594;DHT22;22603;47.900;8.146;2022-10-16T21:26:21;9.40;99.90
36594;DHT22;22603;47.900;8.146;2022-10-16T21:29:12;9.40;99.90
36594;DHT22;22603;47.900;8.146;2022-10-16T21:31:59;9.40;99.90
36594;DHT22;22603;47.900;8.146;2022-10-16T21:34:46;9.30;99.90
36594;DHT22;22603;47.900;8.146;2022-10-16T21:37:33;9.30;99.90
36594;DHT22;22603;47.900;8.146;2022-10-16T21:40:20;9.30;99.90
36594;DHT22;22603;47.900;8.146;2022-10-16T21:43:07;9.20;99.90
36594;DHT22;22603;47.900;8.146;2022-10-16T21:45:56;9.20;99.90